Terminal Aerodrome Forecast
Issued by NWS

Home | Current Version | Previous Version | Text Only | Print | Product List | Glossary On
Versions: 1 2 3 4 5 6 7 8 9 10 11 12 13 14 15
867
FTUS43 KIND 252320
TAFLAF
TAF
KLAF 252320Z 2600/2624 30007KT P6SM BKN045
     FM260400 29004KT P6SM SCT080
     FM260800 00000KT 4SM BR SCT050
     FM261300 VRB03KT P6SM SCT200
     FM261700 16007KT P6SM BKN200
      AMD LTD TO CLD VIS AND WIND 2601/2613=

USA.gov is the U.S. government's official web portal to all federal, state and local government web resources and services.